Time;durP1;ratioP1;P1;durP2;ratioP2;P2;SDS_P1;SDS_P2;PMS_P1;PMS_P2;Temp;Humidity;BMP_temperature;BMP_pressure;BME280_temperature;BME280_humidity;BME280_pressure;Samples;Min_cycle;Max_cycle;Signal;HPM_P1;HPM_P2
2024/02/15 00:00:37;;;;;;;35.38;20.10;;;11.30;99.90;;;;;;5063056;28;20075;-62
2024/02/15 00:03:06;;;;;;;39.05;22.23;;;11.40;99.90;;;;;;5093938;28;20032;-62
2024/02/15 00:05:32;;;;;;;36.15;21.58;;;11.20;99.90;;;;;;5097516;28;20039;-62
2024/02/15 00:07:58;;;;;;;42.22;23.45;;;11.30;99.90;;;;;;5094940;28;20024;-62
2024/02/15 00:10:24;;;;;;;38.70;22.67;;;11.20;99.90;;;;;;5098821;28;20043;-62
2024/02/15 00:12:51;;;;;;;38.60;23.30;;;11.30;99.90;;;;;;5108057;27;20554;-63
2024/02/15 00:15:16;;;;;;;39.25;23.50;;;11.30;99.90;;;;;;5074141;28;20065;-62
2024/02/15 00:17:42;;;;;;;40.55;21.42;;;11.30;99.90;;;;;;5077274;28;20611;-62
2024/02/15 00:20:09;;;;;;;37.33;22.38;;;11.30;99.90;;;;;;5094210;28;20032;-62
2024/02/15 00:22:37;;;;;;;42.55;22.33;;;11.20;99.90;;;;;;5075086;28;20044;-62
2024/02/15 00:25:04;;;;;;;43.40;22.73;;;11.30;99.90;;;;;;5069576;28;20036;-62
2024/02/15 00:27:32;;;;;;;41.95;21.10;;;11.20;99.90;;;;;;5073181;28;20035;-62
2024/02/15 00:29:58;;;;;;;38.00;21.58;;;11.20;99.90;;;;;;5092534;28;20375;-62
2024/02/15 00:32:24;;;;;;;43.78;23.27;;;11.20;99.90;;;;;;5078990;28;20054;-62
2024/02/15 00:34:49;;;;;;;48.38;22.45;;;11.30;99.90;;;;;;5077426;28;20448;-62
2024/02/15 00:37:16;;;;;;;37.95;20.23;;;11.20;99.90;;;;;;5097994;28;20497;-62
2024/02/15 00:39:42;;;;;;;40.30;20.80;;;11.30;99.90;;;;;;5061045;28;20040;-62
2024/02/15 00:42:08;;;;;;;34.67;20.00;;;11.30;99.90;;;;;;5096599;28;20052;-62
2024/02/15 00:44:34;;;;;;;38.13;19.75;;;11.20;99.90;;;;;;5075433;28;20090;-62
2024/02/15 00:47:00;;;;;;;34.17;18.52;;;11.20;99.90;;;;;;5098470;28;20314;-62
2024/02/15 00:49:27;;;;;;;32.25;17.35;;;11.20;99.90;;;;;;5095947;28;20067;-62
2024/02/15 00:51:53;;;;;;;32.03;18.88;;;11.20;99.90;;;;;;5099549;28;20039;-62
2024/02/15 00:54:19;;;;;;;30.05;16.83;;;11.20;99.90;;;;;;5072398;28;20500;-62
2024/02/15 00:56:45;;;;;;;35.72;17.20;;;11.20;99.90;;;;;;5080907;28;20047;-62
2024/02/15 00:59:10;;;;;;;36.25;18.17;;;11.30;99.90;;;;;;5071353;28;20066;-62
2024/02/15 01:01:40;;;;;;;32.63;17.10;;;11.20;99.90;;;;;;5078285;28;20093;-62
2024/02/15 01:04:06;;;;;;;30.13;16.83;;;11.20;99.90;;;;;;5094342;28;20047;-62
2024/02/15 01:06:32;;;;;;;28.98;15.80;;;11.20;99.90;;;;;;5076144;28;20474;-62
2024/02/15 01:09:01;;;;;;;27.13;14.32;;;11.20;99.90;;;;;;5094346;28;20046;-62
2024/02/15 01:11:28;;;;;;;31.02;14.13;;;11.30;99.90;;;;;;5106578;28;20053;-62
2024/02/15 01:13:54;;;;;;;23.42;13.80;;;11.30;99.90;;;;;;5095184;28;20047;-62
2024/02/15 01:16:21;;;;;;;28.73;12.93;;;11.30;99.90;;;;;;5073992;28;20504;-62
2024/02/15 01:18:47;;;;;;;24.67;12.57;;;11.20;99.90;;;;;;5093031;28;20118;-62
2024/02/15 01:21:13;;;;;;;31.52;12.07;;;11.30;99.90;;;;;;5078658;28;20554;-62
2024/02/15 01:23:39;;;;;;;23.70;11.57;;;11.30;99.90;;;;;;5078431;28;20042;-62
2024/02/15 01:26:04;;;;;;;27.02;11.35;;;11.30;99.90;;;;;;5076447;28;20031;-62
2024/02/15 01:28:30;;;;;;;30.20;13.50;;;11.30;99.90;;;;;;5079604;28;20047;-62
2024/02/15 01:30:56;;;;;;;26.70;14.00;;;11.30;99.90;;;;;;5099409;28;20086;-62
2024/02/15 01:33:22;;;;;;;33.17;15.30;;;11.30;99.90;;;;;;5108598;27;20588;-62
2024/02/15 01:35:48;;;;;;;29.98;14.60;;;11.30;99.90;;;;;;5099161;28;20063;-62
2024/02/15 01:38:14;;;;;;;27.00;14.88;;;11.30;99.90;;;;;;5082423;28;20047;-62
2024/02/15 01:40:40;;;;;;;28.52;14.40;;;11.30;99.90;;;;;;5098730;28;20558;-62
2024/02/15 01:43:05;;;;;;;31.88;15.43;;;11.30;99.90;;;;;;5101219;28;20071;-62
2024/02/15 01:45:31;;;;;;;32.10;16.60;;;11.30;99.90;;;;;;5096046;28;20028;-62
2024/02/15 01:47:58;;;;;;;30.15;16.35;;;11.30;99.90;;;;;;5096482;28;20060;-62
2024/02/15 01:50:24;;;;;;;29.42;16.05;;;11.30;99.90;;;;;;5092537;28;20036;-62
2024/02/15 01:52:53;;;;;;;30.90;15.50;;;11.30;99.90;;;;;;5067370;28;20063;-62
2024/02/15 01:55:18;;;;;;;32.90;15.55;;;11.30;99.90;;;;;;5079397;28;20036;-62
2024/02/15 01:57:48;;;;;;;29.10;15.63;;;11.30;99.90;;;;;;5097110;28;20038;-63
2024/02/15 02:00:24;;;;;;;29.92;14.93;;;11.30;99.90;;;;;;5097235;28;20036;-62
2024/02/15 02:02:50;;;;;;;33.25;15.45;;;11.30;99.90;;;;;;5099052;28;20059;-62
2024/02/15 02:05:16;;;;;;;27.48;14.07;;;11.20;99.90;;;;;;5074209;28;20481;-62
2024/02/15 02:07:42;;;;;;;30.02;15.77;;;11.30;99.90;;;;;;5061406;28;20131;-62
2024/02/15 02:10:11;;;;;;;29.30;13.95;;;11.30;99.90;;;;;;5094174;28;20474;-62
2024/02/15 02:12:38;;;;;;;29.67;14.02;;;11.30;99.90;;;;;;5099509;28;20044;-62
2024/02/15 02:15:07;;;;;;;29.02;12.85;;;11.30;99.90;;;;;;5081074;28;20039;-62
2024/02/15 02:17:35;;;;;;;26.02;12.77;;;11.30;99.90;;;;;;5084511;28;20118;-62
2024/02/15 02:20:01;;;;;;;27.27;11.23;;;11.40;99.90;;;;;;5079724;28;20052;-62
2024/02/15 02:22:29;;;;;;;31.73;12.05;;;11.30;99.90;;;;;;5106558;27;20043;-62
2024/02/15 02:25:03;;;;;;;24.90;11.57;;;11.40;99.90;;;;;;5080808;28;20542;-62
2024/02/15 02:27:29;;;;;;;24.30;11.18;;;11.40;99.90;;;;;;5113707;27;20071;-62
2024/02/15 02:29:56;;;;;;;22.92;9.82;;;11.30;99.90;;;;;;5093733;28;20078;-62
2024/02/15 02:32:22;;;;;;;24.52;10.57;;;11.30;99.90;;;;;;5080908;28;20084;-62
2024/02/15 02:34:48;;;;;;;22.13;11.05;;;11.30;99.90;;;;;;5097247;28;20646;-62
2024/02/15 02:37:13;;;;;;;20.25;10.02;;;11.40;99.90;;;;;;5083793;28;20474;-62
2024/02/15 02:39:39;;;;;;;23.02;10.27;;;11.40;99.90;;;;;;5101553;28;20063;-62
2024/02/15 02:42:05;;;;;;;18.65;9.45;;;11.40;99.90;;;;;;5081063;28;20044;-62
2024/02/15 02:44:31;;;;;;;22.63;9.05;;;11.40;99.90;;;;;;5097726;28;20547;-62
2024/02/15 02:46:57;;;;;;;20.65;8.88;;;11.30;99.90;;;;;;5079705;28;20044;-62
2024/02/15 02:49:22;;;;;;;19.90;9.18;;;11.40;99.90;;;;;;5096509;28;20081;-62
2024/02/15 02:51:48;;;;;;;24.30;8.82;;;11.40;99.90;;;;;;5095029;28;20028;-62
2024/02/15 02:54:14;;;;;;;21.55;9.15;;;11.60;99.90;;;;;;5076872;28;20039;-62
2024/02/15 02:56:40;;;;;;;18.88;8.85;;;11.40;99.90;;;;;;5097703;28;20036;-62
2024/02/15 02:59:07;;;;;;;23.33;8.98;;;11.40;99.90;;;;;;5061526;28;20237;-62
2024/02/15 03:01:33;;;;;;;21.85;9.23;;;11.40;99.90;;;;;;5081690;28;20052;-62
2024/02/15 03:03:59;;;;;;;28.55;9.88;;;11.40;99.90;;;;;;5077878;28;20429;-62
2024/02/15 03:06:25;;;;;;;17.38;9.27;;;11.40;99.90;;;;;;5097132;28;20036;-62
2024/02/15 03:08:57;;;;;;;26.48;10.93;;;11.40;99.90;;;;;;5079014;28;20062;-63
2024/02/15 03:11:23;;;;;;;25.70;11.43;;;11.30;99.90;;;;;;5079884;28;20044;-62
2024/02/15 03:13:48;;;;;;;23.45;11.25;;;11.40;99.90;;;;;;5096510;28;20047;-62
2024/02/15 03:16:16;;;;;;;22.42;11.55;;;11.30;99.90;;;;;;5100594;28;20031;-62
2024/02/15 03:18:43;;;;;;;23.55;12.40;;;11.30;99.90;;;;;;5075004;28;20039;-62
2024/02/15 03:21:10;;;;;;;25.40;11.48;;;11.40;99.90;;;;;;5078859;28;20133;-62
2024/02/15 03:23:36;;;;;;;20.60;12.95;;;11.40;99.90;;;;;;5098349;28;20046;-63
2024/02/15 03:26:03;;;;;;;24.98;13.30;;;11.40;99.90;;;;;;5108016;27;20047;-62
2024/02/15 03:28:29;;;;;;;26.27;13.55;;;11.30;99.90;;;;;;5091353;28;20115;-62
2024/02/15 03:30:55;;;;;;;25.10;13.73;;;11.30;99.90;;;;;;5075766;28;20135;-62
2024/02/15 03:33:28;;;;;;;29.05;14.50;;;11.40;99.90;;;;;;5076465;28;20054;-62
2024/02/15 03:35:54;;;;;;;24.00;14.75;;;11.30;99.90;;;;;;5079179;28;20040;-62
2024/02/15 03:38:20;;;;;;;31.65;14.45;;;11.30;99.90;;;;;;5080960;28;20069;-62
2024/02/15 03:40:45;;;;;;;23.90;14.68;;;11.30;99.90;;;;;;5114049;27;20075;-62
2024/02/15 03:43:11;;;;;;;29.83;15.95;;;11.40;99.90;;;;;;5095287;28;20040;-62
2024/02/15 03:45:36;;;;;;;31.20;16.23;;;11.40;99.90;;;;;;5079803;28;20040;-62
2024/02/15 03:48:05;;;;;;;26.80;15.20;;;11.40;99.90;;;;;;5097121;28;20435;-62
2024/02/15 03:50:32;;;;;;;25.00;16.50;;;11.40;99.90;;;;;;5090494;28;20040;-62
2024/02/15 03:52:59;;;;;;;27.55;16.08;;;11.40;99.90;;;;;;5091706;28;20036;-62
2024/02/15 03:55:25;;;;;;;31.60;18.13;;;11.40;99.90;;;;;;5079067;28;20043;-62
2024/02/15 03:57:52;;;;;;;28.25;17.02;;;11.50;99.90;;;;;;5076642;28;20051;-62
2024/02/15 04:00:20;;;;;;;30.40;16.90;;;11.50;99.90;;;;;;5076994;28;20055;-62
2024/02/15 04:02:48;;;;;;;27.67;16.40;;;11.50;99.90;;;;;;5096730;28;20089;-62
2024/02/15 04:05:14;;;;;;;24.63;15.82;;;11.50;99.90;;;;;;5082283;28;20111;-62
2024/02/15 04:07:40;;;;;;;26.98;15.75;;;11.50;99.90;;;;;;5074395;28;20480;-62
2024/02/15 04:10:06;;;;;;;28.25;16.20;;;11.50;99.90;;;;;;5098705;28;20088;-62
2024/02/15 04:12:33;;;;;;;24.58;15.50;;;11.60;99.90;;;;;;5095848;28;20047;-63
2024/02/15 04:15:11;;;;;;;28.58;17.08;;;11.50;99.90;;;;;;5095602;28;20051;-62
2024/02/15 04:17:38;;;;;;;29.70;16.85;;;11.60;99.90;;;;;;5095052;28;20063;-62
2024/02/15 04:20:06;;;;;;;23.88;16.05;;;11.70;99.90;;;;;;5077869;28;20043;-62
2024/02/15 04:22:36;;;;;;;28.02;16.58;;;11.60;99.90;;;;;;5105467;28;20096;-63
2024/02/15 04:25:05;;;;;;;25.98;16.67;;;11.60;99.90;;;;;;5067648;28;20028;-62
2024/02/15 04:27:32;;;;;;;26.88;17.33;;;11.60;99.90;;;;;;5079728;28;20123;-62
2024/02/15 04:29:57;;;;;;;26.80;16.75;;;11.60;99.90;;;;;;5075015;28;20043;-62
2024/02/15 04:32:23;;;;;;;26.83;17.85;;;11.50;99.90;;;;;;5075529;28;20047;-62
2024/02/15 04:34:48;;;;;;;23.33;16.02;;;11.60;99.90;;;;;;5076462;28;20096;-63
2024/02/15 04:37:14;;;;;;;27.63;16.88;;;11.60;99.90;;;;;;5079355;28;20124;-62
2024/02/15 04:39:40;;;;;;;33.22;18.05;;;11.60;99.90;;;;;;5079015;28;20063;-62
2024/02/15 04:42:09;;;;;;;31.48;18.38;;;11.60;99.90;;;;;;5099053;28;20438;-62
2024/02/15 04:44:35;;;;;;;26.58;18.40;;;11.60;99.90;;;;;;5097460;28;20039;-63
2024/02/15 04:47:03;;;;;;;28.40;18.58;;;11.60;99.90;;;;;;5095542;28;20032;-62
2024/02/15 04:49:29;;;;;;;26.90;17.55;;;11.70;99.90;;;;;;5094661;28;20111;-62
2024/02/15 04:51:57;;;;;;;30.17;18.42;;;11.60;99.90;;;;;;5077461;28;20588;-62
2024/02/15 04:54:23;;;;;;;31.73;19.83;;;11.60;99.90;;;;;;5110346;28;20118;-62
2024/02/15 04:56:52;;;;;;;28.13;20.35;;;11.60;99.90;;;;;;5077032;28;20182;-62
2024/02/15 04:59:19;;;;;;;27.58;18.80;;;11.60;99.90;;;;;;5092753;28;20058;-62
2024/02/15 05:01:45;;;;;;;32.47;19.67;;;11.60;99.90;;;;;;5061474;28;20572;-62
2024/02/15 05:04:11;;;;;;;28.33;19.45;;;11.60;99.90;;;;;;5075003;28;20047;-62
2024/02/15 05:06:37;;;;;;;28.92;20.02;;;11.60;99.90;;;;;;5083009;28;20494;-62
2024/02/15 05:09:07;;;;;;;33.45;21.70;;;11.60;99.90;;;;;;5096238;28;20111;-62
2024/02/15 05:11:41;;;;;;;33.92;22.17;;;11.60;99.90;;;;;;5098688;28;20111;-62
2024/02/15 05:14:07;;;;;;;28.17;20.60;;;11.60;99.90;;;;;;5082972;28;20437;-62
2024/02/15 05:16:43;;;;;;;35.35;21.35;;;11.60;99.90;;;;;;5099745;28;20055;-62
2024/02/15 05:19:11;;;;;;;37.55;23.27;;;11.60;99.90;;;;;;5113893;27;20039;-62
2024/02/15 05:21:37;;;;;;;38.88;23.27;;;11.60;99.90;;;;;;5094397;28;20561;-62
2024/02/15 05:24:04;;;;;;;37.63;24.08;;;11.60;99.90;;;;;;5076824;28;20124;-62
2024/02/15 05:26:30;;;;;;;39.08;23.88;;;11.60;99.90;;;;;;5093720;28;20136;-62
2024/02/15 05:28:56;;;;;;;35.17;23.40;;;11.60;99.90;;;;;;5078908;28;20128;-62
2024/02/15 05:31:25;;;;;;;37.33;23.58;;;11.60;99.90;;;;;;5075706;28;20032;-62
2024/02/15 05:33:51;;;;;;;39.90;24.77;;;11.60;99.90;;;;;;5069673;28;20048;-62
2024/02/15 05:36:22;;;;;;;30.05;24.00;;;11.60;99.90;;;;;;5092603;28;20047;-62
2024/02/15 05:38:51;;;;;;;32.10;24.55;;;11.60;99.90;;;;;;5092807;28;20082;-62
2024/02/15 05:41:16;;;;;;;35.17;26.30;;;11.70;99.90;;;;;;5093751;28;20398;-62
2024/02/15 05:43:42;;;;;;;34.28;24.00;;;11.60;99.90;;;;;;5096154;28;20042;-62
2024/02/15 05:46:10;;;;;;;35.47;25.77;;;11.60;99.90;;;;;;5079690;28;20036;-62
2024/02/15 05:48:37;;;;;;;32.88;24.35;;;11.60;99.90;;;;;;5078440;28;20078;-62
2024/02/15 05:51:08;;;;;;;33.05;23.90;;;11.70;99.90;;;;;;5104013;27;20083;-62
2024/02/15 05:53:37;;;;;;;38.95;25.73;;;11.70;99.90;;;;;;5094066;28;20081;-62
2024/02/15 05:56:08;;;;;;;35.70;25.30;;;11.60;99.90;;;;;;5079568;28;20040;-62
2024/02/15 05:58:34;;;;;;;35.95;24.17;;;11.60;99.90;;;;;;5096342;28;20044;-62
2024/02/15 06:01:02;;;;;;;39.03;24.63;;;11.70;99.90;;;;;;5108819;27;20076;-62
2024/02/15 06:03:29;;;;;;;32.10;24.33;;;11.60;99.90;;;;;;5108160;27;20048;-62
2024/02/15 06:06:02;;;;;;;34.38;23.10;;;11.70;99.90;;;;;;5114463;27;20090;-62
2024/02/15 06:08:31;;;;;;;31.08;23.08;;;11.70;99.90;;;;;;5081658;28;20051;-62
2024/02/15 06:10:57;;;;;;;31.05;23.75;;;11.70;99.90;;;;;;5059004;28;20067;-62
2024/02/15 06:13:28;;;;;;;30.90;22.48;;;11.70;99.90;;;;;;5079324;28;20075;-62
2024/02/15 06:15:54;;;;;;;31.80;22.63;;;11.70;99.90;;;;;;5076679;28;20519;-62
2024/02/15 06:18:31;;;;;;;36.22;22.38;;;11.70;99.90;;;;;;5078159;28;20050;-62
2024/02/15 06:20:59;;;;;;;28.27;21.70;;;11.70;99.90;;;;;;5098698;28;20044;-62
2024/02/15 06:23:26;;;;;;;30.70;21.05;;;11.70;99.90;;;;;;5073763;28;20127;-62
2024/02/15 06:25:55;;;;;;;34.75;22.52;;;11.70;99.90;;;;;;5103812;27;20043;-62
2024/02/15 06:39:41;;;;;;;26.38;19.17;;;11.70;99.90;;;;;;5106721;27;20485;-62
2024/02/15 06:42:20;;;;;;;27.83;18.48;;;11.70;99.90;;;;;;5088478;28;20055;-62
2024/02/15 06:44:47;;;;;;;29.92;18.00;;;11.70;99.90;;;;;;5073909;28;20032;-62
2024/02/15 06:47:16;;;;;;;26.27;18.17;;;11.80;99.90;;;;;;5067995;28;20088;-63
2024/02/15 06:49:43;;;;;;;29.42;19.13;;;11.80;99.90;;;;;;5077304;28;20067;-62
2024/02/15 06:52:11;;;;;;;23.38;17.83;;;11.70;99.90;;;;;;5099884;28;20040;-62
2024/02/15 06:54:40;;;;;;;26.75;18.33;;;11.70;99.90;;;;;;5092816;28;20032;-62
2024/02/15 06:57:07;;;;;;;24.88;17.55;;;11.70;99.90;;;;;;5082549;28;20040;-62
2024/02/15 06:59:33;;;;;;;32.03;17.15;;;11.70;99.90;;;;;;5093295;28;20040;-62
2024/02/15 07:02:00;;;;;;;26.30;17.00;;;11.90;99.90;;;;;;5101415;27;20040;-62
2024/02/15 07:04:26;;;;;;;24.38;16.58;;;11.70;99.90;;;;;;5075635;28;20050;-62
2024/02/15 07:06:54;;;;;;;23.85;16.40;;;11.70;99.90;;;;;;5093255;28;20035;-62
2024/02/15 07:09:22;;;;;;;26.80;15.70;;;11.70;99.90;;;;;;5077886;28;20063;-62
2024/02/15 07:11:48;;;;;;;26.08;16.17;;;11.70;99.90;;;;;;5078794;28;20036;-62
2024/02/15 07:14:15;;;;;;;27.95;16.25;;;11.80;99.90;;;;;;5072669;28;20042;-62
2024/02/15 07:16:47;;;;;;;29.20;15.90;;;11.70;99.90;;;;;;5064912;28;20135;-62
2024/02/15 07:19:14;;;;;;;23.65;15.35;;;11.80;99.90;;;;;;5097839;28;20043;-62
2024/02/15 07:21:40;;;;;;;25.55;15.57;;;11.80;99.90;;;;;;5065179;28;20394;-62
2024/02/15 07:24:06;;;;;;;27.50;15.60;;;11.80;99.90;;;;;;5075620;28;20058;-62
2024/02/15 07:26:34;;;;;;;27.17;14.93;;;11.70;99.90;;;;;;5101799;28;20059;-62
2024/02/15 07:29:00;;;;;;;22.95;15.85;;;11.80;99.90;;;;;;5098414;28;20053;-62
2024/02/15 07:31:29;;;;;;;25.27;15.63;;;11.80;99.90;;;;;;5095102;28;20044;-62
2024/02/15 07:33:55;;;;;;;24.27;15.50;;;11.80;99.90;;;;;;5075194;28;20083;-62
2024/02/15 07:36:21;;;;;;;21.38;14.07;;;11.80;99.90;;;;;;5094315;28;20503;-62
2024/02/15 07:38:51;;;;;;;20.20;14.15;;;11.80;99.90;;;;;;5077506;28;20054;-62
2024/02/15 07:41:19;;;;;;;22.50;14.77;;;11.70;99.90;;;;;;5099717;28;20043;-62
2024/02/15 07:43:46;;;;;;;22.30;14.50;;;11.80;99.90;;;;;;5080990;28;20042;-62
2024/02/15 07:46:16;;;;;;;22.80;14.30;;;11.70;99.90;;;;;;5098302;28;20035;-62
2024/02/15 07:48:45;;;;;;;17.85;13.43;;;11.80;99.90;;;;;;5111229;27;20046;-62
2024/02/15 07:51:12;;;;;;;18.50;13.77;;;11.80;99.90;;;;;;5105408;27;20048;-62
2024/02/15 07:53:42;;;;;;;19.08;13.52;;;11.80;99.90;;;;;;5089399;28;20192;-62
2024/02/15 07:56:10;;;;;;;20.33;12.90;;;11.80;99.90;;;;;;5078683;28;20122;-62
2024/02/15 07:58:39;;;;;;;20.65;13.75;;;11.80;99.90;;;;;;5097855;28;20051;-62
2024/02/15 08:01:05;;;;;;;15.45;12.85;;;11.80;99.90;;;;;;5082118;28;20074;-62
2024/02/15 08:03:31;;;;;;;19.90;12.77;;;11.80;99.90;;;;;;5059044;28;20135;-62
2024/02/15 08:05:56;;;;;;;16.30;12.52;;;11.80;99.90;;;;;;5076630;28;20046;-62
2024/02/15 08:08:22;;;;;;;17.08;13.07;;;11.80;99.90;;;;;;5096712;28;20032;-62
2024/02/15 08:10:51;;;;;;;20.38;12.77;;;11.80;99.90;;;;;;5074172;28;20101;-62
2024/02/15 08:13:17;;;;;;;18.55;12.82;;;11.90;99.90;;;;;;5092524;28;20050;-62
2024/02/15 08:15:44;;;;;;;17.50;13.07;;;11.80;99.90;;;;;;5097804;28;20036;-62
2024/02/15 08:18:12;;;;;;;17.52;12.07;;;11.90;99.90;;;;;;5097253;28;20043;-62
2024/02/15 08:20:40;;;;;;;17.42;12.15;;;11.80;99.90;;;;;;5093767;28;20040;-62
2024/02/15 08:23:06;;;;;;;20.38;12.52;;;11.90;99.90;;;;;;5076569;28;20041;-62
2024/02/15 08:25:32;;;;;;;20.30;11.80;;;11.80;99.90;;;;;;5058557;28;20127;-62
2024/02/15 08:27:57;;;;;;;15.13;11.65;;;11.80;99.90;;;;;;5078070;28;20452;-62
2024/02/15 08:30:23;;;;;;;15.38;11.82;;;11.80;99.90;;;;;;5097686;28;20049;-62
2024/02/15 08:32:49;;;;;;;19.30;12.43;;;11.80;99.90;;;;;;5113251;28;20047;-62
2024/02/15 08:35:16;;;;;;;16.60;11.55;;;11.80;99.90;;;;;;5097174;28;20074;-62
2024/02/15 08:37:43;;;;;;;16.40;12.05;;;11.90;99.90;;;;;;5090844;28;20681;-62
2024/02/15 08:40:14;;;;;;;15.38;12.02;;;11.80;99.90;;;;;;5072345;28;20043;-62
2024/02/15 08:42:41;;;;;;;16.15;12.07;;;11.80;99.90;;;;;;5061773;28;20564;-62
2024/02/15 08:45:08;;;;;;;15.02;11.77;;;11.80;99.90;;;;;;5095068;28;20043;-62
2024/02/15 08:47:39;;;;;;;16.63;12.10;;;11.90;99.90;;;;;;5074189;28;20036;-62
2024/02/15 08:50:06;;;;;;;14.18;12.48;;;11.90;99.90;;;;;;5075691;28;20110;-62
2024/02/15 08:52:32;;;;;;;20.58;12.30;;;11.90;99.90;;;;;;5072650;28;20040;-62
2024/02/15 08:54:59;;;;;;;17.20;11.50;;;11.80;99.90;;;;;;5071805;28;20035;-62
2024/02/15 08:57:25;;;;;;;14.43;11.80;;;11.90;99.90;;;;;;5079244;28;20077;-62
2024/02/15 08:59:52;;;;;;;18.00;11.60;;;11.90;99.90;;;;;;5060210;28;20035;-62
2024/02/15 09:02:18;;;;;;;17.85;11.00;;;11.90;99.90;;;;;;5077879;28;20135;-62
2024/02/15 09:04:44;;;;;;;16.35;11.75;;;11.90;99.90;;;;;;5097834;28;20046;-62
2024/02/15 09:07:10;;;;;;;15.70;11.32;;;11.90;99.90;;;;;;5078038;28;20036;-62
2024/02/15 09:09:36;;;;;;;20.02;12.40;;;12.10;99.90;;;;;;5093832;28;20035;-62
2024/02/15 09:12:05;;;;;;;14.75;11.50;;;11.90;99.90;;;;;;5095999;28;20574;-62
2024/02/15 09:14:36;;;;;;;14.43;10.65;;;11.90;99.90;;;;;;5079604;28;20074;-62
2024/02/15 09:17:07;;;;;;;15.98;12.00;;;11.90;99.90;;;;;;5078670;28;20040;-62
2024/02/15 09:19:34;;;;;;;15.65;10.82;;;11.90;99.90;;;;;;5094267;28;20055;-62
2024/02/15 09:22:06;;;;;;;14.90;10.52;;;12.00;99.90;;;;;;5079162;28;20633;-62
2024/02/15 09:24:33;;;;;;;16.40;10.15;;;12.00;99.90;;;;;;5094160;28;20043;-62
2024/02/15 09:27:01;;;;;;;12.57;10.63;;;12.00;99.90;;;;;;5095431;28;20040;-62
2024/02/15 09:29:29;;;;;;;16.65;10.82;;;12.00;99.90;;;;;;5092449;28;20050;-62
2024/02/15 09:31:56;;;;;;;14.85;9.95;;;12.00;99.90;;;;;;5078422;28;20100;-62
2024/02/15 09:34:24;;;;;;;13.27;9.25;;;12.10;99.90;;;;;;5090710;28;20049;-62
2024/02/15 09:36:50;;;;;;;12.32;10.35;;;12.20;99.90;;;;;;5099314;28;20374;-62
2024/02/15 09:39:17;;;;;;;14.02;10.30;;;11.90;99.90;;;;;;5097677;28;20043;-62
2024/02/15 09:41:43;;;;;;;12.63;10.30;;;12.00;99.90;;;;;;5094832;28;20040;-62
2024/02/15 09:44:10;;;;;;;13.00;9.43;;;12.00;99.90;;;;;;5077064;28;20046;-62
2024/02/15 09:46:41;;;;;;;15.73;9.82;;;12.00;99.90;;;;;;5095784;28;20409;-62
2024/02/15 09:49:07;;;;;;;10.48;9.30;;;12.10;99.90;;;;;;5102670;27;20097;-62
2024/02/15 09:51:33;;;;;;;9.57;8.52;;;12.10;99.90;;;;;;5073571;28;20491;-62
2024/02/15 09:54:00;;;;;;;17.77;9.25;;;12.10;99.90;;;;;;5077992;28;20040;-62
2024/02/15 09:56:28;;;;;;;11.98;9.77;;;12.20;99.90;;;;;;5078454;28;20555;-62
2024/02/15 09:58:54;;;;;;;9.48;8.48;;;12.20;99.90;;;;;;5084550;28;20204;-62
2024/02/15 10:01:24;;;;;;;11.70;8.95;;;12.10;99.90;;;;;;5092249;28;20130;-62
2024/02/15 10:03:51;;;;;;;10.55;8.65;;;12.10;99.90;;;;;;5105397;27;20032;-62
2024/02/15 10:06:18;;;;;;;8.23;7.35;;;12.20;99.90;;;;;;5076569;28;20042;-62
2024/02/15 10:08:44;;;;;;;11.68;8.05;;;12.50;99.90;;;;;;5112981;27;20047;-62
2024/02/15 10:11:10;;;;;;;9.02;7.82;;;12.30;99.90;;;;;;5063664;28;20044;-62
2024/02/15 10:13:37;;;;;;;9.77;7.95;;;12.20;99.90;;;;;;5092191;28;20032;-62
2024/02/15 10:16:25;;;;;;;9.77;7.07;;;12.30;99.90;;;;;;5097924;28;20582;-62
2024/02/15 10:18:51;;;;;;;7.70;6.68;;;12.20;99.90;;;;;;5079927;28;20036;-62
2024/02/15 10:21:29;;;;;;;8.18;7.28;;;12.40;99.90;;;;;;5098719;28;20040;-62
2024/02/15 10:24:08;;;;;;;7.57;6.70;;;12.60;99.90;;;;;;5060883;28;20119;-62
2024/02/15 10:26:37;;;;;;;7.78;6.22;;;12.40;99.90;;;;;;5099243;28;20141;-62
2024/02/15 10:29:10;;;;;;;8.20;5.80;;;12.40;99.90;;;;;;5076256;28;20150;-62
2024/02/15 10:31:41;;;;;;;6.90;5.97;;;12.40;99.90;;;;;;5101449;28;20079;-62
2024/02/15 10:34:08;;;;;;;6.20;5.63;;;12.40;99.90;;;;;;5097019;28;20047;-62
2024/02/15 10:36:36;;;;;;;6.38;5.78;;;12.40;99.90;;;;;;5112801;27;20047;-63
2024/02/15 10:39:19;;;;;;;6.00;5.40;;;12.50;99.90;;;;;;5097808;28;20399;-62
2024/02/15 10:41:52;;;;;;;5.93;5.43;;;12.50;99.90;;;;;;5083504;28;20093;-62
2024/02/15 10:44:26;;;;;;;5.72;5.22;;;12.50;99.90;;;;;;5077436;28;20092;-62
2024/02/15 10:46:52;;;;;;;5.47;4.95;;;12.60;99.90;;;;;;5095161;28;20044;-62
2024/02/15 10:49:23;;;;;;;5.85;4.55;;;12.60;99.90;;;;;;5096625;28;20119;-62
2024/02/15 10:51:50;;;;;;;5.40;4.90;;;12.60;99.90;;;;;;5096336;28;20047;-62
2024/02/15 10:54:24;;;;;;;4.90;4.50;;;12.70;99.90;;;;;;5108281;27;20057;-62
2024/02/15 10:56:56;;;;;;;4.72;4.28;;;12.70;99.90;;;;;;5100716;28;20554;-62
2024/02/15 10:59:29;;;;;;;5.03;3.90;;;12.60;99.90;;;;;;5110744;27;20122;-62
2024/02/15 11:01:59;;;;;;;4.57;4.18;;;12.80;99.90;;;;;;5096024;28;20036;-62
2024/02/15 11:04:32;;;;;;;4.22;3.83;;;12.70;99.90;;;;;;5065192;28;20119;-62
2024/02/15 11:06:58;;;;;;;4.72;4.00;;;12.80;99.90;;;;;;5116543;27;20047;-62
2024/02/15 11:09:28;;;;;;;3.75;3.25;;;12.80;99.90;;;;;;5097536;28;20105;-62
2024/02/15 11:11:55;;;;;;;4.32;3.85;;;12.70;99.90;;;;;;5097276;28;20052;-62
2024/02/15 11:14:29;;;;;;;3.85;3.40;;;12.80;99.90;;;;;;5099082;28;20199;-62
2024/02/15 11:16:58;;;;;;;3.83;3.05;;;12.70;99.90;;;;;;5081625;28;20036;-62
2024/02/15 11:19:35;;;;;;;3.20;2.90;;;12.80;99.90;;;;;;5099254;28;20097;-62
2024/02/15 11:22:09;;;;;;;2.67;2.47;;;12.80;99.90;;;;;;5100756;28;20331;-62
2024/02/15 11:24:38;;;;;;;3.05;2.85;;;12.80;99.90;;;;;;5078467;28;20484;-62
2024/02/15 11:27:05;;;;;;;3.20;2.80;;;12.80;99.90;;;;;;5076146;28;20062;-62
2024/02/15 11:29:49;;;;;;;2.70;2.50;;;12.80;99.90;;;;;;5076924;28;20043;-62
2024/02/15 11:32:43;;;;;;;2.70;2.50;;;12.90;99.90;;;;;;5113102;27;20040;-62
2024/02/15 11:35:16;;;;;;;2.53;2.33;;;12.80;99.90;;;;;;5078327;28;20040;-62
2024/02/15 11:37:47;;;;;;;2.70;2.50;;;12.80;99.90;;;;;;5078611;28;20052;-62
2024/02/15 11:40:23;;;;;;;2.45;2.25;;;12.80;99.90;;;;;;5081312;28;20565;-62
2024/02/15 11:42:53;;;;;;;2.70;2.50;;;12.70;99.90;;;;;;5095399;28;20027;-62
2024/02/15 11:45:19;;;;;;;3.28;2.55;;;12.70;99.90;;;;;;5097203;28;20397;-62
2024/02/15 11:47:50;;;;;;;3.95;2.30;;;12.80;99.90;;;;;;5076946;28;20089;-62
2024/02/15 11:50:20;;;;;;;2.42;2.17;;;12.80;99.90;;;;;;5077962;28;20065;-62
2024/02/15 11:52:50;;;;;;;2.75;2.55;;;13.00;99.90;;;;;;5074807;28;20044;-62
2024/02/15 11:55:23;;;;;;;2.80;2.10;;;12.80;99.90;;;;;;5072726;28;20086;-62
2024/02/15 11:58:05;;;;;;;3.80;2.30;;;12.70;99.90;;;;;;5072663;28;20044;-62
2024/02/15 12:20:11;;;;;;;4.38;3.97;;;12.60;99.90;;;;;;5055715;28;20040;-62
2024/02/15 12:22:46;;;;;;;6.85;4.65;;;12.70;99.90;;;;;;5065451;28;20064;-62
2024/02/15 12:25:16;;;;;;;;;;;12.60;99.90;;;;;;5079403;28;20032;-62
2024/02/15 12:27:43;;;;;;;7.13;4.65;;;12.60;99.90;;;;;;5090045;28;19931;-62
2024/02/15 12:30:13;;;;;;;5.97;4.60;;;12.60;99.90;;;;;;5092933;28;20032;-62
2024/02/15 12:32:39;;;;;;;8.50;4.13;;;12.60;99.90;;;;;;5081142;28;20044;-62
2024/02/15 12:35:25;;;;;;;5.53;4.70;;;12.60;99.90;;;;;;5096873;28;20035;-62
2024/02/15 12:38:00;;;;;;;5.82;4.32;;;12.60;99.90;;;;;;5095216;28;20045;-62
2024/02/15 12:40:34;;;;;;;5.93;4.85;;;12.60;99.90;;;;;;5061612;28;20054;-62
2024/02/15 12:43:00;;;;;;;7.43;4.80;;;12.60;99.90;;;;;;5091071;28;20044;-62
2024/02/15 12:45:29;;;;;;;7.65;4.60;;;12.60;99.90;;;;;;5059211;28;20036;-62
2024/02/15 12:47:56;;;;;;;4.93;4.43;;;12.60;99.90;;;;;;5089571;28;20379;-62
2024/02/15 12:50:29;;;;;;;5.15;4.20;;;12.60;99.90;;;;;;5105324;28;20050;-62
2024/02/15 12:53:01;;;;;;;5.03;4.25;;;12.60;99.90;;;;;;5108371;28;20119;-62
2024/02/15 12:55:34;;;;;;;4.60;4.10;;;12.50;99.90;;;;;;5075313;28;20106;-62
2024/02/15 12:58:04;;;;;;;8.23;4.18;;;12.60;99.90;;;;;;5069759;28;20098;-62
2024/02/15 13:00:35;;;;;;;6.15;4.50;;;12.60;99.90;;;;;;5097289;28;20497;-62
2024/02/15 13:03:03;;;;;;;5.85;4.30;;;12.70;99.90;;;;;;5065887;28;20048;-62
2024/02/15 13:05:30;;;;;;;4.63;3.97;;;12.60;99.90;;;;;;5077104;28;20122;-62
2024/02/15 13:08:04;;;;;;;6.80;4.88;;;12.60;99.90;;;;;;5071612;28;20089;-62